Curtis Field Brady US
ICAO: KBBD
IATA: BBD
Category: Medium
Scheduled Services: No

Elevation: 1827 ft
TransAlt. 18000 ft.

Airport Communications:
AWOS 3:118.375
HOUSTON CNTR:132.35
CTAF/UNICOM:122.8

KBBD Zoom In..

Runways:

(A) RW 08 length 3520 ft width 110 ft
---- / hdg 86

(B) RW 17 length 4605 ft width 75 ft
---- / hdg 173

(C) RW 26 length 3520 ft width 110 ft
---- / hdg 266

(D) RW 35 length 4605 ft width 75 ft
---- / hdg 353

Location; KBBD
Day. 19 / Time. 20.35 Zulu
* Altimeter: 29.91
* Temperature: 39° c. 102.2°f.
* Wind from: 210° Speed 07 kn.
Dewpoint: 12° c.
Visibility: 10 Statute Miles.
Clouds: Clear (automated report).

KBBD 192035Z AUTO 21007KT 10SM CLR 39/12 A2991 RMK AO2


Wind From 210°
Speed 07 kn.

 
 
jpsmedia.com for Web Design worldairports.se 2018   terms of use